Aviation Digital Data Service (ADDS)

Output produced by METARs form (0243 UTC 24 July 2017)
found at http://www.aviationweather.gov/adds/metars/
 
KXNA 232320Z 2400/2424 17005KT P6SM SCT120 BKN250 
     FM240300 00000KT P6SM SCT250 
     FM241500 04005KT P6SM SKC